createdAt,value
2019-01-13T00:00:38.824Z,2.00
2019-01-13T00:03:11.120Z,1.77
2019-01-13T00:05:43.446Z,1.10
2019-01-13T00:08:15.806Z,2.60
2019-01-13T00:10:48.198Z,3.15
2019-01-13T00:13:20.502Z,2.08
2019-01-13T00:15:52.837Z,1.42
2019-01-13T00:18:25.538Z,1.67
2019-01-13T00:20:57.288Z,0.73
2019-01-13T00:23:29.584Z,0.72
2019-01-13T00:26:02.241Z,3.85
2019-01-13T00:28:34.000Z,1.53
2019-01-13T00:31:06.385Z,2.37
2019-01-13T00:33:38.691Z,5.53
2019-01-13T00:36:11.390Z,1.12
2019-01-13T00:38:43.402Z,1.60
2019-01-13T00:41:15.758Z,2.22
2019-01-13T00:43:48.360Z,1.05
2019-01-13T00:46:20.201Z,2.13
2019-01-13T00:48:52.495Z,1.77
2019-01-13T00:51:25.153Z,0.65
2019-01-13T00:53:56.990Z,1.60
2019-01-13T00:56:29.314Z,1.35
2019-01-13T00:59:01.718Z,4.10
2019-01-13T01:01:34.056Z,2.30
2019-01-13T01:04:06.396Z,1.32
2019-01-13T01:06:39.070Z,2.40
2019-01-13T01:09:11.930Z,2.08
2019-01-13T01:11:44.318Z,3.62
2019-01-13T01:14:16.267Z,1.47
2019-01-13T01:16:48.689Z,2.92
2019-01-13T01:19:21.078Z,1.82
2019-01-13T01:21:53.412Z,1.30
2019-01-13T01:24:25.706Z,0.78
2019-01-13T01:26:58.328Z,1.87
2019-01-13T01:29:30.800Z,1.20
2019-01-13T01:32:03.477Z,2.80
2019-01-13T01:34:35.541Z,2.92
2019-01-13T01:37:07.977Z,1.02
2019-01-13T01:39:40.286Z,2.17
2019-01-13T01:42:12.681Z,1.05
2019-01-13T01:44:45.123Z,3.08
2019-01-13T01:47:17.437Z,5.35
2019-01-13T01:49:49.756Z,2.25
2019-01-13T01:52:22.166Z,1.52
2019-01-13T01:54:54.494Z,5.33
2019-01-13T01:57:27.248Z,4.17
2019-01-13T01:59:59.375Z,2.02
2019-01-13T02:02:31.711Z,2.12
2019-01-13T02:05:04.121Z,1.12
2019-01-13T02:07:36.553Z,4.92
2019-01-13T02:10:12.910Z,4.53
2019-01-13T02:12:45.203Z,3.87
2019-01-13T02:15:26.505Z,4.75
2019-01-13T02:17:58.809Z,4.08
2019-01-13T02:20:31.138Z,7.08
2019-01-13T02:23:03.447Z,4.28
2019-01-13T02:25:36.897Z,3.87
2019-01-13T02:28:08.666Z,6.50
2019-01-13T02:30:48.806Z,4.97
2019-01-13T02:33:15.095Z,6.47
2019-01-13T02:35:47.491Z,3.90
2019-01-13T02:38:19.819Z,3.10
2019-01-13T02:40:52.151Z,5.47
2019-01-13T02:43:24.552Z,6.95
2019-01-13T02:45:56.891Z,5.65
2019-01-13T02:48:29.216Z,4.87
2019-01-13T02:51:01.539Z,4.47
2019-01-13T02:53:33.856Z,5.33
2019-01-13T02:56:06.187Z,2.80
2019-01-13T02:58:38.610Z,4.12
2019-01-13T03:01:11.037Z,2.40
2019-01-13T03:03:43.455Z,1.77
2019-01-13T03:06:15.838Z,5.50
2019-01-13T03:08:48.144Z,4.12
2019-01-13T03:11:20.479Z,2.12
2019-01-13T03:13:53.086Z,2.25
2019-01-13T03:16:25.445Z,2.37
2019-01-13T03:18:57.724Z,2.17
2019-01-13T03:21:30.109Z,4.00
2019-01-13T03:24:02.419Z,5.85
2019-01-13T03:26:34.954Z,4.47
2019-01-13T03:29:07.278Z,5.00
2019-01-13T03:31:39.577Z,4.78
2019-01-13T03:34:11.886Z,3.58
2019-01-13T03:36:44.210Z,2.77
2019-01-13T03:39:16.530Z,3.92
2019-01-13T03:41:49.201Z,3.90
2019-01-13T03:44:21.337Z,1.53
2019-01-13T03:46:53.198Z,2.80
2019-01-13T03:49:25.529Z,6.00
2019-01-13T03:51:57.858Z,3.87
2019-01-13T03:54:30.153Z,2.10
2019-01-13T03:57:02.471Z,2.27
2019-01-13T03:59:35.087Z,4.33
2019-01-13T04:02:06.850Z,4.00
2019-01-13T04:04:39.175Z,3.65
2019-01-13T04:07:11.501Z,5.90
2019-01-13T04:09:44.156Z,6.62
2019-01-13T04:12:16.217Z,4.27
2019-01-13T04:14:48.905Z,6.10
2019-01-13T04:17:20.658Z,1.93
2019-01-13T04:19:53.316Z,3.37
2019-01-13T04:22:25.213Z,1.90
2019-01-13T04:24:57.539Z,6.90
2019-01-13T04:27:29.855Z,1.45
2019-01-13T04:30:02.182Z,6.10
2019-01-13T04:32:34.584Z,5.28
2019-01-13T04:35:07.921Z,6.25
2019-01-13T04:37:40.008Z,4.53
2019-01-13T04:40:12.348Z,4.62
2019-01-13T04:42:44.684Z,5.45
2019-01-13T04:45:17.172Z,6.30
2019-01-13T04:47:50.338Z,5.03
2019-01-13T04:50:22.360Z,4.92
2019-01-13T04:52:54.967Z,7.80
2019-01-13T04:55:27.694Z,6.47
2019-01-13T04:57:59.449Z,2.53
2019-01-13T05:00:32.141Z,8.15
2019-01-13T05:03:03.991Z,8.40
2019-01-13T05:05:36.364Z,6.70
2019-01-13T05:08:09.007Z,4.20
2019-01-13T05:10:40.761Z,8.40
2019-01-13T05:13:13.084Z,4.72
2019-01-13T05:15:45.405Z,4.65
2019-01-13T05:18:17.732Z,1.32
2019-01-13T05:20:50.055Z,6.05
2019-01-13T05:23:22.387Z,6.78
2019-01-13T05:25:55.080Z,6.78
2019-01-13T05:28:26.939Z,7.13
2019-01-13T05:30:59.305Z,8.60
2019-01-13T05:33:31.642Z,9.85
2019-01-13T05:36:04.042Z,7.03
2019-01-13T05:38:36.419Z,11.30
2019-01-13T05:41:08.752Z,9.25
2019-01-13T05:43:41.069Z,1.45
2019-01-13T05:46:13.402Z,6.97
2019-01-13T05:48:45.731Z,9.53
2019-01-13T05:51:18.184Z,7.85
2019-01-13T05:53:50.573Z,11.95
2019-01-13T05:56:22.900Z,9.00
2019-01-13T05:58:55.339Z,9.83
2019-01-13T06:01:27.706Z,7.08
2019-01-13T06:04:00.276Z,5.55
2019-01-13T06:06:32.917Z,2.25
2019-01-13T06:09:06.472Z,9.33
2019-01-13T06:11:38.830Z,9.70
2019-01-13T06:14:11.434Z,8.93
2019-01-13T06:16:43.851Z,11.10
2019-01-13T06:19:16.177Z,6.17
2019-01-13T06:21:49.223Z,10.60
2019-01-13T06:24:21.357Z,12.18
2019-01-13T06:26:53.740Z,8.33
2019-01-13T06:29:26.189Z,11.50
2019-01-13T06:31:58.919Z,9.20
2019-01-13T06:34:30.742Z,7.47
2019-01-13T06:37:03.086Z,11.43
2019-01-13T06:39:35.492Z,3.35
2019-01-13T06:42:07.893Z,11.53
2019-01-13T06:44:40.558Z,4.55
2019-01-13T06:47:12.344Z,8.03
2019-01-13T06:49:46.029Z,13.32
2019-01-13T06:54:48.813Z,9.08
2019-01-13T06:57:20.670Z,10.53
2019-01-13T06:59:53.367Z,8.78
2019-01-13T07:02:25.526Z,7.57
2019-01-13T07:04:57.279Z,7.90
2019-01-13T07:07:29.746Z,9.43
2019-01-13T07:10:02.320Z,10.78
2019-01-13T07:12:34.635Z,13.28
2019-01-13T07:15:09.936Z,11.05
2019-01-13T07:17:42.297Z,8.95
2019-01-13T07:20:17.402Z,6.75
2019-01-13T07:22:50.133Z,13.08
2019-01-13T07:25:21.942Z,9.83
2019-01-13T07:27:54.349Z,7.50
2019-01-13T07:30:27.132Z,8.40
2019-01-13T07:32:59.296Z,13.83
2019-01-13T07:35:31.634Z,7.87
2019-01-13T07:38:03.993Z,12.53
2019-01-13T07:40:36.390Z,8.05
2019-01-13T07:43:08.741Z,9.90
2019-01-13T07:45:41.377Z,10.30
2019-01-13T07:48:13.158Z,16.90
2019-01-13T07:50:45.936Z,15.18
2019-01-13T07:53:18.478Z,9.45
2019-01-13T07:55:50.551Z,14.50
2019-01-13T07:58:23.345Z,13.78
2019-01-13T08:00:55.552Z,15.53
2019-01-13T08:03:28.196Z,13.68
2019-01-13T08:06:00.874Z,13.93
2019-01-13T08:08:33.025Z,13.50
2019-01-13T08:11:05.219Z,13.33
2019-01-13T08:13:37.040Z,11.37
2019-01-13T08:16:09.364Z,9.93
2019-01-13T08:18:42.108Z,11.85
2019-01-13T08:21:13.873Z,12.83
2019-01-13T08:23:46.220Z,8.55
2019-01-13T08:26:18.938Z,7.50
2019-01-13T08:28:51.394Z,11.30
2019-01-13T08:31:23.513Z,7.97
2019-01-13T08:33:55.884Z,8.05
2019-01-13T08:36:28.362Z,11.08
2019-01-13T08:39:00.758Z,5.90
2019-01-13T08:41:33.232Z,12.35
2019-01-13T08:44:05.581Z,15.70
2019-01-13T08:46:37.970Z,11.78
2019-01-13T08:49:10.354Z,7.05
2019-01-13T08:51:42.727Z,11.68
2019-01-13T08:54:15.422Z,12.23
2019-01-13T08:56:47.234Z,14.63
2019-01-13T08:59:19.613Z,14.85
2019-01-13T09:01:52.204Z,9.33
2019-01-13T09:04:25.219Z,11.43
2019-01-13T09:06:57.256Z,9.15
2019-01-13T09:09:30.193Z,7.53
2019-01-13T09:12:02.449Z,9.15
2019-01-13T09:14:34.786Z,7.62
2019-01-13T09:17:07.188Z,10.58
2019-01-13T09:19:39.817Z,11.05
2019-01-13T09:22:12.632Z,12.90
2019-01-13T09:24:44.798Z,8.08
2019-01-13T09:27:17.178Z,9.08
2019-01-13T09:29:49.678Z,8.83
2019-01-13T09:32:22.100Z,6.05
2019-01-13T09:34:54.425Z,9.33
2019-01-13T09:37:27.098Z,4.92
2019-01-13T09:39:58.950Z,4.37
2019-01-13T09:42:31.299Z,8.73
2019-01-13T09:45:03.725Z,2.98
2019-01-13T09:47:36.105Z,3.37
2019-01-13T09:50:11.193Z,4.53
2019-01-13T09:52:43.522Z,4.33
2019-01-13T09:55:17.630Z,4.17
2019-01-13T09:57:50.115Z,3.95
2019-01-13T10:00:37.925Z,4.70
2019-01-13T10:03:11.541Z,43.70
2019-01-13T10:08:14.066Z,3.92
2019-01-13T10:10:46.391Z,5.83
2019-01-13T10:13:18.715Z,3.52
2019-01-13T10:15:51.350Z,3.35
2019-01-13T10:18:23.199Z,2.57
2019-01-13T10:20:56.177Z,1.45
2019-01-13T10:23:28.508Z,2.62
2019-01-13T10:26:00.407Z,4.80
2019-01-13T10:28:36.311Z,2.12
2019-01-13T10:31:09.624Z,1.50
2019-01-13T10:33:41.636Z,3.65
2019-01-13T10:36:14.348Z,2.25
2019-01-13T10:38:46.696Z,1.35
2019-01-13T10:41:19.256Z,1.67
2019-01-13T10:43:53.598Z,2.05
2019-01-13T10:46:26.997Z,1.20
2019-01-13T10:48:59.265Z,1.15
2019-01-13T10:51:32.563Z,1.35
2019-01-13T10:56:40.925Z,1.10
2019-01-13T10:59:17.658Z,1.00
2019-01-13T11:01:51.203Z,1.35
2019-01-13T11:06:53.738Z,0.70
2019-01-13T11:09:26.437Z,1.72
2019-01-13T11:11:58.549Z,1.67
2019-01-13T11:14:32.683Z,0.82
2019-01-13T11:17:05.421Z,0.62
2019-01-13T11:19:37.462Z,0.47
2019-01-13T11:22:09.849Z,0.82
2019-01-13T11:24:42.160Z,0.50
2019-01-13T11:27:14.506Z,1.57
2019-01-13T11:29:47.229Z,0.55
2019-01-13T11:32:19.243Z,1.30
2019-01-13T11:34:51.571Z,0.80
2019-01-13T11:37:23.893Z,0.62
2019-01-13T11:39:56.282Z,0.53
2019-01-13T11:42:28.566Z,0.53
2019-01-13T11:45:01.098Z,0.57
2019-01-13T11:47:33.456Z,0.80
2019-01-13T11:50:07.671Z,0.75
2019-01-13T11:52:40.053Z,0.60
2019-01-13T11:55:14.127Z,0.80
2019-01-13T11:57:46.941Z,0.72
2019-01-13T12:00:29.222Z,0.80
2019-01-13T12:03:06.645Z,0.40
2019-01-13T12:05:35.989Z,0.85
2019-01-13T12:08:08.829Z,1.60
2019-01-13T12:10:41.086Z,1.30
2019-01-13T12:13:13.428Z,1.47
2019-01-13T12:15:45.748Z,1.50
2019-01-13T12:18:18.049Z,1.50
2019-01-13T12:20:50.722Z,1.32
2019-01-13T12:23:22.457Z,3.50
2019-01-13T12:25:54.818Z,1.57
2019-01-13T12:28:27.094Z,1.35
2019-01-13T12:30:59.435Z,1.75
2019-01-13T12:33:31.788Z,1.27
2019-01-13T12:36:04.187Z,1.90
2019-01-13T12:38:38.467Z,2.20
2019-01-13T12:41:10.923Z,1.65
2019-01-13T12:43:43.296Z,2.77
2019-01-13T12:46:15.692Z,4.20
2019-01-13T12:48:48.430Z,4.70
2019-01-13T12:51:20.476Z,3.33
2019-01-13T12:53:53.175Z,3.25
2019-01-13T12:56:25.339Z,6.70
2019-01-13T12:58:57.648Z,4.12
2019-01-13T13:01:30.252Z,3.75
2019-01-13T13:04:02.157Z,4.60
2019-01-13T13:06:34.774Z,4.95
2019-01-13T13:09:09.854Z,7.23
2019-01-13T13:11:42.193Z,6.28
2019-01-13T13:14:14.751Z,3.27
2019-01-13T13:16:46.526Z,2.03
2019-01-13T13:19:18.844Z,2.98
2019-01-13T13:21:51.173Z,2.65
2019-01-13T13:24:23.488Z,1.57
2019-01-13T13:26:55.830Z,3.02
2019-01-13T13:29:28.227Z,6.47
2019-01-13T13:32:00.707Z,2.02
2019-01-13T13:34:33.073Z,3.30
2019-01-13T13:37:05.386Z,1.32
2019-01-13T13:39:37.687Z,2.47
2019-01-13T13:42:10.016Z,1.30
2019-01-13T13:44:42.331Z,1.70
2019-01-13T13:47:14.810Z,2.10
2019-01-13T13:49:47.305Z,1.60
2019-01-13T13:52:19.798Z,3.05
2019-01-13T13:54:52.629Z,2.15
2019-01-13T13:57:25.260Z,1.12
2019-01-13T13:59:57.835Z,1.32
2019-01-13T14:02:30.115Z,1.27
2019-01-13T14:05:02.539Z,1.20
2019-01-13T14:07:35.174Z,1.57
2019-01-13T14:10:12.443Z,1.73
2019-01-13T14:12:44.897Z,2.52
2019-01-13T14:15:17.187Z,3.67
2019-01-13T14:17:49.586Z,4.70
2019-01-13T14:20:21.911Z,6.15
2019-01-13T14:22:54.633Z,9.78
2019-01-13T14:25:26.400Z,5.63
2019-01-13T14:27:59.461Z,2.67
2019-01-13T14:30:31.852Z,27.17
2019-01-13T14:33:03.644Z,4.20
2019-01-13T14:35:36.376Z,3.27
2019-01-13T14:38:08.616Z,5.42
2019-01-13T14:40:40.965Z,2.25
2019-01-13T14:43:13.598Z,3.22
2019-01-13T14:45:45.351Z,2.17
2019-01-13T14:48:17.688Z,1.10
2019-01-13T14:50:50.271Z,0.98
2019-01-13T14:53:22.046Z,1.70
2019-01-13T14:55:54.376Z,1.20
2019-01-13T14:58:26.694Z,3.33
2019-01-13T15:00:59.058Z,0.85
2019-01-13T15:03:31.387Z,0.93
2019-01-13T15:06:03.696Z,0.95
2019-01-13T15:08:36.027Z,1.80
2019-01-13T15:11:08.400Z,3.35
2019-01-13T15:13:40.765Z,1.35
2019-01-13T15:16:13.126Z,0.78
2019-01-13T15:18:45.466Z,1.10
2019-01-13T15:21:17.948Z,0.82
2019-01-13T15:23:50.286Z,0.53
2019-01-13T15:26:22.707Z,0.37
2019-01-13T15:28:55.396Z,0.82
2019-01-13T15:31:27.422Z,0.45
2019-01-13T15:33:59.787Z,1.42
2019-01-13T15:36:32.628Z,1.20
2019-01-13T15:39:08.242Z,0.60
2019-01-13T15:41:40.577Z,0.70
2019-01-13T15:44:13.189Z,1.90
2019-01-13T15:46:44.943Z,2.20
2019-01-13T15:49:17.239Z,0.78
2019-01-13T15:51:49.577Z,2.02
2019-01-13T15:54:22.266Z,1.32
2019-01-13T15:56:54.630Z,0.40
2019-01-13T15:59:26.399Z,0.90
2019-01-13T16:01:58.732Z,1.25
2019-01-13T16:04:31.292Z,1.05
2019-01-13T16:07:03.406Z,0.87
2019-01-13T16:09:35.240Z,0.60
2019-01-13T16:12:07.626Z,0.78
2019-01-13T16:14:44.140Z,0.90
2019-01-13T16:17:31.629Z,0.60
2019-01-13T16:20:47.404Z,0.95
2019-01-13T16:23:30.015Z,0.70
2019-01-13T16:26:22.575Z,0.72
2019-01-13T16:29:02.129Z,0.35
2019-01-13T16:31:46.130Z,3.92
2019-01-13T16:34:35.343Z,0.40
2019-01-13T16:37:20.007Z,2.92
2019-01-13T16:40:09.471Z,1.70
2019-01-13T16:42:52.530Z,1.12
2019-01-13T16:45:41.965Z,0.50
2019-01-13T16:48:23.115Z,0.88
2019-01-13T16:51:24.909Z,1.05
2019-01-13T16:54:20.122Z,1.17
2019-01-13T16:57:10.036Z,1.32
2019-01-13T17:00:00.395Z,0.72
2019-01-13T17:02:37.925Z,1.20
2019-01-13T17:05:11.630Z,1.05
2019-01-13T17:07:44.256Z,0.95
2019-01-13T17:10:18.759Z,1.43
2019-01-13T17:12:51.447Z,2.62
2019-01-13T17:15:34.168Z,1.60
2019-01-13T17:18:09.700Z,1.10
2019-01-13T17:20:42.017Z,1.65
2019-01-13T17:23:14.648Z,0.98
2019-01-13T17:25:46.958Z,0.87
2019-01-13T17:28:19.089Z,0.75
2019-01-13T17:30:51.491Z,0.98
2019-01-13T17:33:23.815Z,0.98
2019-01-13T17:35:56.172Z,0.85
2019-01-13T17:38:28.514Z,1.47
2019-01-13T17:41:00.847Z,2.80
2019-01-13T17:43:33.278Z,0.80
2019-01-13T17:46:05.873Z,2.37
2019-01-13T17:48:37.791Z,1.40
2019-01-13T17:51:10.536Z,1.22
2019-01-13T17:53:42.591Z,1.67
2019-01-13T17:56:15.025Z,1.40
2019-01-13T17:58:47.853Z,2.83
2019-01-13T18:01:35.140Z,2.00
2019-01-13T18:04:07.575Z,0.75
2019-01-13T18:06:40.239Z,1.02
2019-01-13T18:09:12.425Z,0.60
2019-01-13T18:11:44.648Z,0.80
2019-01-13T18:14:17.286Z,0.62
2019-01-13T18:16:49.504Z,0.95
2019-01-13T18:19:21.923Z,0.75
2019-01-13T18:21:54.219Z,1.50
2019-01-13T18:24:26.564Z,1.00
2019-01-13T18:26:59.205Z,2.22
2019-01-13T18:29:30.976Z,0.93
2019-01-13T18:32:03.270Z,0.98
2019-01-13T18:34:35.582Z,0.88
2019-01-13T18:37:07.959Z,0.70
2019-01-13T18:39:40.366Z,1.25
2019-01-13T18:42:13.105Z,0.50
2019-01-13T18:44:45.133Z,0.55
2019-01-13T18:47:17.449Z,0.88
2019-01-13T18:49:50.132Z,0.80
2019-01-13T18:52:22.191Z,0.65
2019-01-13T18:54:54.757Z,1.30
2019-01-13T18:57:27.232Z,0.40
2019-01-13T18:59:59.298Z,0.75
2019-01-13T19:02:31.888Z,0.80
2019-01-13T19:05:03.767Z,1.90
2019-01-13T19:07:36.091Z,0.30
2019-01-13T19:10:21.712Z,0.57
2019-01-13T19:13:02.959Z,0.68
2019-01-13T19:15:35.326Z,0.50
2019-01-13T19:18:07.694Z,1.22
2019-01-13T19:20:40.215Z,0.72
2019-01-13T19:23:17.075Z,0.30
2019-01-13T19:25:49.392Z,0.85
2019-01-13T19:28:21.712Z,0.55
2019-01-13T19:30:54.433Z,0.50
2019-01-13T19:33:26.516Z,0.53
2019-01-13T19:35:58.826Z,0.40
2019-01-13T19:38:31.165Z,1.17
2019-01-13T19:41:03.785Z,2.30
2019-01-13T19:43:35.691Z,3.07
2019-01-13T19:46:08.137Z,1.15
2019-01-13T19:48:40.715Z,2.05
2019-01-13T19:51:12.646Z,0.70
2019-01-13T19:53:44.968Z,0.47
2019-01-13T19:56:17.396Z,1.85
2019-01-13T19:58:50.180Z,0.95
2019-01-13T20:01:22.935Z,0.72
2019-01-13T20:03:55.013Z,0.82
2019-01-13T20:06:27.503Z,1.20
2019-01-13T20:09:00.180Z,0.82
2019-01-13T20:11:32.443Z,0.70
2019-01-13T20:14:04.643Z,1.17
2019-01-13T20:16:37.008Z,0.37
2019-01-13T20:19:09.662Z,0.62
2019-01-13T20:21:41.440Z,1.20
2019-01-13T20:24:16.131Z,1.05
2019-01-13T20:26:48.436Z,0.47
2019-01-13T20:29:21.181Z,2.50
2019-01-13T20:31:53.273Z,1.75
2019-01-13T20:34:25.578Z,0.47
2019-01-13T20:36:57.924Z,1.15
2019-01-13T20:39:30.568Z,1.05
2019-01-13T20:42:02.674Z,0.60
2019-01-13T20:44:34.813Z,0.73
2019-01-13T20:47:06.988Z,0.63
2019-01-13T20:49:38.776Z,0.63
2019-01-13T20:52:11.414Z,0.78
2019-01-13T20:54:43.310Z,1.03
2019-01-13T20:57:15.664Z,1.95
2019-01-13T20:59:48.421Z,0.57
2019-01-13T21:02:20.538Z,0.70
2019-01-13T21:04:52.827Z,2.35
2019-01-13T21:07:25.581Z,0.62
2019-01-13T21:09:58.102Z,0.95
2019-01-13T21:12:30.200Z,1.05
2019-01-13T21:15:02.945Z,0.72
2019-01-13T21:17:34.958Z,0.55
2019-01-13T21:20:07.914Z,0.72
2019-01-13T21:22:40.079Z,1.37
2019-01-13T21:25:14.210Z,0.80
2019-01-13T21:27:47.069Z,1.12
2019-01-13T21:30:22.790Z,1.30
2019-01-13T21:32:55.123Z,1.52
2019-01-13T21:35:33.861Z,4.72
2019-01-13T21:38:01.589Z,0.78
2019-01-13T21:40:34.192Z,1.65
2019-01-13T21:43:05.981Z,0.77
2019-01-13T21:45:38.273Z,5.87
2019-01-13T21:48:10.593Z,0.75
2019-01-13T21:50:42.898Z,0.53
2019-01-13T21:53:15.206Z,0.70
2019-01-13T21:55:47.684Z,3.05
2019-01-13T21:58:20.015Z,0.75
2019-01-13T22:00:52.341Z,0.20
2019-01-13T22:03:24.655Z,0.50
2019-01-13T22:05:57.155Z,0.40
2019-01-13T22:08:29.472Z,1.27
2019-01-13T22:11:01.778Z,0.30
2019-01-13T22:13:34.082Z,0.42
2019-01-13T22:16:06.372Z,0.60
2019-01-13T22:18:38.706Z,0.42
2019-01-13T22:21:11.282Z,0.42
2019-01-13T22:23:43.042Z,0.30
2019-01-13T22:26:15.436Z,0.30
2019-01-13T22:28:47.839Z,3.25
2019-01-13T22:31:22.413Z,0.50
2019-01-13T22:33:54.563Z,1.65
2019-01-13T22:36:27.006Z,0.60
2019-01-13T22:38:59.622Z,0.68
2019-01-13T22:41:31.515Z,0.70
2019-01-13T22:44:04.233Z,0.20
2019-01-13T22:46:36.348Z,0.40
2019-01-13T22:49:08.939Z,0.20
2019-01-13T22:51:40.724Z,0.20
2019-01-13T22:54:13.210Z,0.47
2019-01-13T22:56:45.493Z,0.50
2019-01-13T22:59:17.800Z,0.60
2019-01-13T23:01:50.214Z,0.80
2019-01-13T23:04:22.519Z,2.65
2019-01-13T23:06:54.810Z,1.12
2019-01-13T23:09:27.144Z,1.85
2019-01-13T23:11:59.538Z,0.47
2019-01-13T23:14:31.885Z,0.42
2019-01-13T23:17:04.168Z,0.80
2019-01-13T23:19:36.460Z,0.40
2019-01-13T23:22:08.747Z,1.47
2019-01-13T23:24:41.068Z,2.15
2019-01-13T23:27:13.451Z,0.68
2019-01-13T23:29:45.765Z,0.33
2019-01-13T23:32:18.191Z,0.60
2019-01-13T23:34:50.775Z,1.10
2019-01-13T23:37:22.805Z,0.93
2019-01-13T23:39:55.117Z,1.30
2019-01-13T23:42:27.767Z,0.60
2019-01-13T23:44:59.666Z,0.50
2019-01-13T23:47:31.964Z,2.37
2019-01-13T23:50:04.321Z,1.30
2019-01-13T23:52:36.620Z,1.47
2019-01-13T23:55:09.240Z,0.98
2019-01-13T23:57:41.092Z,1.30
